createdAt,value
2019-06-07T00:00:47.667Z,15.30
2019-06-07T00:03:50.893Z,15.20
2019-06-07T00:06:54.532Z,15.30
2019-06-07T00:09:57.696Z,15.20
2019-06-07T00:13:01.030Z,15.10
2019-06-07T00:16:04.623Z,15.10
2019-06-07T00:19:09.695Z,15.00
2019-06-07T00:22:18.065Z,15.00
2019-06-07T00:25:24.010Z,15.00
2019-06-07T00:28:24.220Z,15.00
2019-06-07T00:31:27.557Z,14.90
2019-06-07T00:34:30.772Z,14.90
2019-06-07T00:37:34.056Z,14.90
2019-06-07T00:40:37.329Z,14.80
2019-06-07T00:43:40.553Z,14.70
2019-06-07T00:46:43.716Z,14.80
2019-06-07T00:49:46.840Z,14.70
2019-06-07T00:55:55.038Z,14.80
2019-06-07T00:59:10.755Z,14.70
2019-06-07T01:02:03.472Z,14.70
2019-06-07T01:05:07.191Z,14.60
2019-06-07T01:08:10.517Z,14.60
2019-06-07T01:11:15.927Z,14.50
2019-06-07T01:14:24.065Z,14.50
2019-06-07T01:17:39.086Z,14.50
2019-06-07T01:20:31.257Z,14.50
2019-06-07T01:24:04.753Z,14.40
2019-06-07T01:26:39.381Z,14.40
2019-06-07T01:29:42.509Z,14.30
2019-06-07T01:32:45.869Z,14.30
2019-06-07T01:35:48.968Z,14.20
2019-06-07T01:38:52.622Z,14.20
2019-06-07T01:41:56.073Z,14.20
2019-06-07T01:44:59.269Z,14.20
2019-06-07T01:48:02.569Z,14.10
2019-06-07T01:51:07.536Z,14.10
2019-06-07T01:54:49.649Z,14.10
2019-06-07T01:57:31.085Z,14.10
2019-06-07T02:00:22.017Z,14.10
2019-06-07T02:03:26.922Z,14.10
2019-06-07T02:06:32.293Z,14.10
2019-06-07T02:09:35.748Z,14.10
2019-06-07T02:12:43.266Z,14.10
2019-06-07T02:15:43.868Z,14.10
2019-06-07T02:19:01.138Z,14.10
2019-06-07T02:21:52.386Z,14.00
2019-06-07T02:25:34.424Z,14.00
2019-06-07T02:28:26.026Z,14.10
2019-06-07T02:31:05.776Z,14.10
2019-06-07T02:34:09.341Z,14.00
2019-06-07T02:37:12.632Z,14.10
2019-06-07T02:40:17.918Z,14.10
2019-06-07T02:43:24.851Z,14.10
2019-06-07T02:46:38.041Z,14.00
2019-06-07T02:49:37.286Z,14.00
2019-06-07T02:52:40.162Z,14.10
2019-06-07T02:56:32.899Z,14.00
2019-06-07T02:58:46.573Z,14.10
2019-06-07T03:01:50.000Z,14.00
2019-06-07T03:04:53.174Z,13.80
2019-06-07T03:07:57.013Z,13.70
2019-06-07T03:11:01.174Z,13.60
2019-06-07T03:14:04.512Z,13.50
2019-06-07T03:17:20.001Z,13.30
2019-06-07T03:20:23.573Z,13.30
2019-06-07T03:23:28.855Z,13.20
2019-06-07T03:26:45.152Z,13.20
2019-06-07T03:29:41.219Z,13.20
2019-06-07T03:32:47.858Z,13.20
2019-06-07T03:35:48.569Z,13.20
2019-06-07T03:38:51.765Z,13.10
2019-06-07T03:42:05.597Z,13.10
2019-06-07T03:45:00.000Z,13.10
2019-06-07T03:48:03.434Z,13.10
2019-06-07T03:51:24.018Z,13.10
2019-06-07T03:54:11.936Z,13.00
2019-06-07T03:57:15.238Z,13.00
2019-06-07T04:00:18.445Z,13.00
2019-06-07T04:03:33.501Z,13.10
2019-06-07T04:06:28.845Z,13.00
2019-06-07T04:09:35.605Z,13.00
2019-06-07T04:12:40.001Z,13.10
2019-06-07T04:15:41.821Z,13.20
2019-06-07T04:18:45.004Z,13.20
2019-06-07T04:21:48.434Z,13.30
2019-06-07T04:24:51.509Z,13.40
2019-06-07T04:27:54.864Z,13.40
2019-06-07T04:30:57.993Z,13.50
2019-06-07T04:34:01.093Z,13.60
2019-06-07T04:37:04.857Z,13.60
2019-06-07T04:40:08.197Z,13.70
2019-06-07T04:43:12.987Z,13.70
2019-06-07T04:46:40.802Z,13.80
2019-06-07T04:49:44.359Z,13.90
2019-06-07T04:52:47.818Z,13.90
2019-06-07T04:55:52.120Z,13.90
2019-06-07T04:58:56.420Z,14.00
2019-06-07T05:01:59.558Z,14.00
2019-06-07T05:05:03.146Z,14.20
2019-06-07T05:08:07.930Z,14.60
2019-06-07T05:11:11.389Z,14.80
2019-06-07T05:14:20.588Z,14.80
2019-06-07T05:17:23.908Z,14.70
2019-06-07T05:20:27.412Z,14.60
2019-06-07T05:26:40.168Z,14.60
2019-06-07T05:29:44.304Z,14.50
2019-06-07T05:32:48.047Z,14.50
2019-06-07T05:35:51.177Z,14.60
2019-06-07T05:38:54.540Z,14.70
2019-06-07T05:41:57.665Z,14.70
2019-06-07T05:45:01.138Z,14.80
2019-06-07T05:48:06.355Z,14.80
2019-06-07T05:51:10.986Z,14.90
2019-06-07T05:54:14.304Z,15.10
2019-06-07T05:57:17.491Z,15.30
2019-06-07T06:00:20.800Z,15.40
2019-06-07T06:03:23.993Z,15.40
2019-06-07T06:06:27.336Z,15.40
2019-06-07T06:09:30.409Z,15.40
2019-06-07T06:12:38.319Z,15.50
2019-06-07T06:15:45.378Z,15.60
2019-06-07T06:18:46.861Z,15.50
2019-06-07T06:21:48.748Z,15.50
2019-06-07T06:25:29.806Z,15.90
2019-06-07T06:28:10.192Z,16.10
2019-06-07T06:31:02.170Z,16.30
2019-06-07T06:34:05.509Z,16.40
2019-06-07T06:37:08.664Z,16.60
2019-06-07T06:40:12.534Z,16.90
2019-06-07T06:43:15.776Z,17.00
2019-06-07T06:46:37.284Z,17.30
2019-06-07T06:49:24.006Z,17.40
2019-06-07T06:52:27.200Z,17.20
2019-06-07T06:55:30.388Z,17.30
2019-06-07T06:59:18.815Z,17.50
2019-06-07T07:01:39.782Z,18.00
2019-06-07T07:04:44.017Z,18.40
2019-06-07T07:07:51.630Z,18.80
2019-06-07T07:10:54.993Z,19.10
2019-06-07T07:13:58.783Z,18.80
2019-06-07T07:17:06.336Z,19.40
2019-06-07T07:20:09.888Z,19.20
2019-06-07T07:23:14.101Z,18.90
2019-06-07T07:26:17.209Z,18.60
2019-06-07T07:29:20.389Z,19.10
2019-06-07T07:32:25.057Z,20.20
2019-06-07T07:35:29.384Z,20.80
2019-06-07T07:38:32.679Z,20.60
2019-06-07T07:41:36.044Z,21.10
2019-06-07T07:44:39.281Z,21.70
2019-06-07T07:47:58.450Z,21.00
2019-06-07T07:50:49.811Z,20.80
2019-06-07T07:54:04.214Z,21.40
2019-06-07T07:56:57.745Z,21.20
2019-06-07T08:00:25.705Z,22.50
2019-06-07T08:03:08.274Z,23.40
2019-06-07T08:06:11.633Z,24.10
2019-06-07T08:09:14.869Z,24.70
2019-06-07T08:12:18.364Z,25.00
2019-06-07T08:15:21.665Z,23.80
2019-06-07T08:18:25.176Z,24.90
2019-06-07T08:21:28.538Z,25.20
2019-06-07T08:24:31.760Z,26.00
2019-06-07T08:27:34.944Z,26.40
2019-06-07T08:31:03.688Z,26.90
2019-06-07T08:33:44.505Z,26.30
2019-06-07T08:36:48.038Z,26.70
2019-06-07T08:39:56.716Z,26.60
2019-06-07T08:43:15.091Z,26.80
2019-06-07T08:46:07.384Z,27.70
2019-06-07T08:49:08.916Z,28.00
2019-06-07T08:52:12.691Z,27.20
2019-06-07T08:55:16.314Z,28.20
2019-06-07T08:58:19.493Z,29.20
2019-06-07T09:01:22.786Z,29.40
2019-06-07T09:04:26.311Z,29.90
2019-06-07T09:07:29.577Z,30.20
2019-06-07T09:10:33.014Z,30.20
2019-06-07T09:13:36.165Z,30.80
2019-06-07T09:16:39.568Z,31.00
2019-06-07T09:19:42.793Z,29.70
2019-06-07T09:22:46.153Z,27.90
2019-06-07T09:26:01.285Z,26.30
2019-06-07T09:28:56.189Z,25.40
2019-06-07T09:32:04.707Z,25.30
2019-06-07T09:35:12.443Z,25.50
2019-06-07T09:38:24.297Z,25.80
2019-06-07T09:41:16.353Z,26.60
2019-06-07T09:44:25.500Z,27.70
2019-06-07T09:47:32.579Z,29.20
2019-06-07T09:50:29.798Z,30.50
2019-06-07T09:53:33.261Z,31.10
2019-06-07T09:56:36.358Z,31.10
2019-06-07T09:59:39.654Z,31.90
2019-06-07T10:02:42.868Z,32.30
2019-06-07T10:05:46.281Z,32.60
2019-06-07T10:11:54.690Z,33.20
2019-06-07T10:14:58.686Z,32.50
2019-06-07T10:18:02.783Z,32.00
2019-06-07T10:21:07.676Z,33.70
2019-06-07T10:24:11.402Z,33.50
2019-06-07T10:27:15.012Z,32.10
2019-06-07T10:30:18.552Z,31.60
2019-06-07T10:33:21.769Z,32.80
2019-06-07T10:36:24.858Z,32.40
2019-06-07T10:39:28.257Z,32.60
2019-06-07T10:42:31.560Z,31.70
2019-06-07T10:45:35.768Z,31.10
2019-06-07T10:48:39.068Z,32.10
2019-06-07T10:51:42.179Z,31.90
2019-06-07T10:54:45.393Z,33.60
2019-06-07T10:57:48.589Z,33.30
2019-06-07T11:00:52.141Z,34.30
2019-06-07T11:03:55.891Z,33.40
2019-06-07T11:06:59.326Z,33.30
2019-06-07T11:10:07.086Z,32.30
2019-06-07T11:13:08.756Z,32.30
2019-06-07T11:16:13.087Z,33.10
2019-06-07T11:19:17.922Z,32.90
2019-06-07T11:22:21.558Z,32.90
2019-06-07T11:25:24.784Z,32.80
2019-06-07T11:28:28.135Z,31.70
2019-06-07T11:31:31.304Z,31.60
2019-06-07T11:34:34.676Z,31.30
2019-06-07T11:37:37.905Z,31.00
2019-06-07T11:40:41.100Z,31.50
2019-06-07T11:43:44.311Z,32.10
2019-06-07T11:46:47.613Z,33.30
2019-06-07T11:49:50.754Z,34.60
2019-06-07T11:52:53.881Z,34.00
2019-06-07T11:55:56.984Z,32.40
2019-06-07T11:59:00.037Z,33.60
2019-06-07T12:02:03.566Z,31.80
2019-06-07T12:05:07.848Z,31.70
2019-06-07T12:08:11.906Z,33.00
2019-06-07T12:11:16.371Z,34.30
2019-06-07T12:14:19.732Z,33.50
2019-06-07T12:17:22.823Z,33.40
2019-06-07T12:20:26.084Z,34.40
2019-06-07T12:23:29.517Z,32.80
2019-06-07T12:26:32.933Z,34.00
2019-06-07T12:29:36.080Z,34.20
2019-06-07T12:32:39.453Z,34.30
2019-06-07T12:35:42.572Z,33.80
2019-06-07T12:38:46.008Z,33.80
2019-06-07T12:41:49.069Z,32.80
2019-06-07T12:44:52.286Z,30.50
2019-06-07T12:47:55.589Z,31.90
2019-06-07T12:50:58.711Z,33.70
2019-06-07T12:54:02.054Z,36.10
2019-06-07T12:57:05.460Z,35.20
2019-06-07T13:00:10.287Z,33.70
2019-06-07T13:03:14.243Z,33.00
2019-06-07T13:06:17.729Z,33.10
2019-06-07T13:09:21.886Z,34.10
2019-06-07T13:12:25.048Z,34.80
2019-06-07T13:15:28.328Z,34.70
2019-06-07T13:18:33.629Z,36.70
2019-06-07T13:21:36.749Z,36.70
2019-06-07T13:24:39.944Z,36.70
2019-06-07T13:27:43.091Z,35.70
2019-06-07T13:30:46.233Z,36.50
2019-06-07T13:33:49.636Z,35.60
2019-06-07T13:36:53.964Z,32.30
2019-06-07T13:39:57.249Z,32.30
2019-06-07T13:43:00.480Z,35.30
2019-06-07T13:46:03.637Z,36.60
2019-06-07T13:49:06.836Z,36.40
2019-06-07T13:52:10.032Z,35.10
2019-06-07T13:55:13.654Z,34.60
2019-06-07T13:58:18.488Z,35.90
2019-06-07T14:01:22.498Z,38.10
2019-06-07T14:04:26.938Z,38.20
2019-06-07T14:07:30.309Z,39.20
2019-06-07T14:10:33.500Z,38.10
2019-06-07T14:13:36.597Z,37.70
2019-06-07T14:16:39.788Z,37.40
2019-06-07T14:19:42.991Z,39.10
2019-06-07T14:22:47.281Z,38.60
2019-06-07T14:25:50.501Z,37.80
2019-06-07T14:28:53.825Z,38.40
2019-06-07T14:31:57.102Z,39.40
2019-06-07T14:35:00.456Z,39.70
2019-06-07T14:38:03.617Z,40.90
2019-06-07T14:41:06.719Z,40.10
2019-06-07T14:44:09.929Z,38.40
2019-06-07T14:47:13.179Z,38.60
2019-06-07T14:50:16.611Z,40.40
2019-06-07T14:53:19.886Z,41.80
2019-06-07T14:56:22.976Z,41.50
2019-06-07T14:59:26.318Z,39.90
2019-06-07T15:02:33.800Z,39.10
2019-06-07T15:05:35.675Z,40.00
2019-06-07T15:08:39.240Z,40.00
2019-06-07T15:11:42.320Z,38.60
2019-06-07T15:14:45.746Z,39.60
2019-06-07T15:17:49.029Z,39.40
2019-06-07T15:20:52.458Z,39.70
2019-06-07T15:23:55.609Z,39.60
2019-06-07T15:26:58.704Z,39.80
2019-06-07T15:30:09.453Z,39.30
2019-06-07T15:33:07.182Z,39.70
2019-06-07T15:36:10.480Z,38.70
2019-06-07T15:39:13.648Z,39.00
2019-06-07T15:42:16.934Z,37.90
2019-06-07T15:45:20.421Z,38.10
2019-06-07T15:48:23.538Z,36.70
2019-06-07T15:51:26.860Z,36.40
2019-06-07T15:54:30.275Z,36.90
2019-06-07T15:57:35.089Z,38.10
2019-06-07T16:00:40.565Z,37.90
2019-06-07T16:03:43.420Z,37.20
2019-06-07T16:06:46.601Z,35.80
2019-06-07T16:09:49.785Z,36.70
2019-06-07T16:13:00.171Z,37.00
2019-06-07T16:15:58.052Z,36.50
2019-06-07T16:19:27.859Z,35.10
2019-06-07T16:22:31.141Z,36.00
2019-06-07T16:25:35.852Z,35.80
2019-06-07T16:28:40.376Z,34.50
2019-06-07T16:31:44.913Z,34.80
2019-06-07T16:34:48.637Z,35.40
2019-06-07T16:37:52.367Z,35.70
2019-06-07T16:40:55.869Z,35.40
2019-06-07T16:43:59.045Z,35.10
2019-06-07T16:47:02.573Z,35.30
2019-06-07T16:50:06.425Z,34.60
2019-06-07T16:53:09.753Z,33.90
2019-06-07T16:56:14.129Z,34.40
2019-06-07T16:59:17.382Z,33.50
2019-06-07T17:02:20.897Z,32.80
2019-06-07T17:05:24.355Z,32.60
2019-06-07T17:08:27.464Z,32.80
2019-06-07T17:11:30.690Z,32.60
2019-06-07T17:14:33.954Z,32.40
2019-06-07T17:17:38.713Z,31.80
2019-06-07T17:20:43.219Z,31.60
2019-06-07T17:23:47.405Z,31.70
2019-06-07T17:26:50.760Z,31.70
2019-06-07T17:29:53.928Z,30.40
2019-06-07T17:32:59.530Z,30.40
2019-06-07T17:36:02.169Z,29.70
2019-06-07T17:39:06.993Z,29.70
2019-06-07T17:42:10.216Z,29.60
2019-06-07T17:45:14.814Z,29.00
2019-06-07T17:48:17.926Z,28.60
2019-06-07T17:51:21.004Z,27.80
2019-06-07T17:54:24.230Z,27.10
2019-06-07T17:57:27.637Z,26.60
2019-06-07T18:00:48.772Z,26.20
2019-06-07T18:03:53.235Z,26.00
2019-06-07T18:06:57.044Z,25.80
2019-06-07T18:10:02.026Z,25.80
2019-06-07T18:13:05.589Z,25.60
2019-06-07T18:16:08.884Z,25.30
2019-06-07T18:19:12.424Z,25.20
2019-06-07T18:22:16.024Z,25.00
2019-06-07T18:25:19.397Z,25.00
2019-06-07T18:28:24.406Z,24.70
2019-06-07T18:31:27.943Z,24.60
2019-06-07T18:34:31.233Z,24.50
2019-06-07T18:37:34.432Z,24.40
2019-06-07T18:40:37.661Z,24.20
2019-06-07T18:43:40.953Z,24.20
2019-06-07T18:46:46.085Z,24.00
2019-06-07T18:49:49.612Z,23.90
2019-06-07T18:52:52.769Z,23.80
2019-06-07T18:55:56.231Z,23.60
2019-06-07T18:58:59.890Z,23.50
2019-06-07T19:02:03.191Z,23.30
2019-06-07T19:05:07.093Z,23.20
2019-06-07T19:08:10.268Z,23.20
2019-06-07T19:11:13.468Z,22.90
2019-06-07T19:14:16.898Z,22.90
2019-06-07T19:17:20.160Z,22.80
2019-06-07T19:20:23.430Z,22.70
2019-06-07T19:23:26.656Z,22.60
2019-06-07T19:26:29.965Z,22.50
2019-06-07T19:29:33.287Z,22.40
2019-06-07T19:32:37.814Z,22.30
2019-06-07T19:35:42.532Z,22.20
2019-06-07T19:38:45.716Z,22.10
2019-06-07T19:41:49.259Z,22.00
2019-06-07T19:45:00.054Z,21.90
2019-06-07T19:47:58.692Z,21.80
2019-06-07T19:51:03.183Z,21.70
2019-06-07T19:54:06.453Z,21.70
2019-06-07T19:57:09.686Z,21.60
2019-06-07T20:00:14.415Z,21.60
2019-06-07T20:03:18.147Z,21.50
2019-06-07T20:06:21.634Z,21.50
2019-06-07T20:09:24.985Z,21.40
2019-06-07T20:12:28.350Z,21.30
2019-06-07T20:15:31.453Z,21.30
2019-06-07T20:18:34.716Z,21.20
2019-06-07T20:21:37.809Z,21.20
2019-06-07T20:24:41.045Z,21.10
2019-06-07T20:27:44.325Z,21.00
2019-06-07T20:30:47.537Z,20.90
2019-06-07T20:33:52.400Z,20.90
2019-06-07T20:36:55.528Z,20.80
2019-06-07T20:40:05.952Z,20.70
2019-06-07T20:43:05.740Z,20.70
2019-06-07T20:46:09.345Z,20.60
2019-06-07T20:49:12.514Z,20.50
2019-06-07T20:52:15.601Z,20.50
2019-06-07T20:55:18.933Z,20.30
2019-06-07T20:58:22.920Z,20.30
2019-06-07T21:01:26.000Z,20.30
2019-06-07T21:04:29.201Z,20.20
2019-06-07T21:07:32.935Z,20.10
2019-06-07T21:10:38.021Z,20.10
2019-06-07T21:13:41.346Z,20.00
2019-06-07T21:16:44.645Z,20.00
2019-06-07T21:19:47.729Z,19.90
2019-06-07T21:22:51.451Z,19.90
2019-06-07T21:25:55.904Z,19.80
2019-06-07T21:28:59.170Z,19.80
2019-06-07T21:32:03.350Z,19.80
2019-06-07T21:35:08.479Z,19.70
2019-06-07T21:38:12.745Z,19.70
2019-06-07T21:41:16.316Z,19.60
2019-06-07T21:44:19.540Z,19.50
2019-06-07T21:47:22.865Z,19.50
2019-06-07T21:50:25.937Z,19.40
2019-06-07T21:53:29.020Z,19.40
2019-06-07T21:56:33.387Z,19.40
2019-06-07T21:59:36.646Z,19.20
2019-06-07T22:02:40.150Z,19.20
2019-06-07T22:05:49.303Z,19.10
2019-06-07T22:08:53.627Z,19.00
2019-06-07T22:11:56.796Z,18.80
2019-06-07T22:15:00.041Z,18.70
2019-06-07T22:18:04.422Z,18.60
2019-06-07T22:21:08.558Z,18.40
2019-06-07T22:24:15.091Z,18.40
2019-06-07T22:27:19.033Z,18.30
2019-06-07T22:30:22.237Z,18.20
2019-06-07T22:33:25.950Z,18.10
2019-06-07T22:36:29.115Z,18.00
2019-06-07T22:39:32.450Z,17.90
2019-06-07T22:42:35.769Z,17.80
2019-06-07T22:45:39.513Z,17.70
2019-06-07T22:48:43.881Z,17.60
2019-06-07T22:51:47.169Z,17.60
2019-06-07T22:54:50.440Z,17.50
2019-06-07T22:57:58.179Z,17.40
2019-06-07T23:01:01.431Z,17.40
2019-06-07T23:04:04.869Z,17.30
2019-06-07T23:07:08.985Z,17.30
2019-06-07T23:10:13.337Z,17.20
2019-06-07T23:13:18.070Z,17.20
2019-06-07T23:16:21.757Z,17.10
2019-06-07T23:19:25.245Z,17.10
2019-06-07T23:22:28.545Z,17.00
2019-06-07T23:25:34.404Z,17.00
2019-06-07T23:28:37.909Z,16.90
2019-06-07T23:31:41.173Z,16.90
2019-06-07T23:34:44.290Z,16.90
2019-06-07T23:37:47.598Z,16.80
2019-06-07T23:40:50.753Z,16.80
2019-06-07T23:43:53.881Z,16.80
2019-06-07T23:47:10.385Z,16.80
2019-06-07T23:50:01.984Z,16.70
2019-06-07T23:53:05.218Z,16.70
2019-06-07T23:56:08.366Z,16.70
2019-06-07T23:59:11.989Z,16.70
